BAW475E LEBL-EGLL
Flight info
| Callsign | BAW475E |
|---|---|
| Flight time | 1h 45m |
| Altitude | 34000 |
| Route | NATPI DCT EVNAM DCT AGN DCT SECHE DCT UVELI DCT CNA DCT MANAK DCT EPAPU DCT RINSO DCT EKRAS DCT REVTU DCT BOLRO UP87 ROXOG |
| Aircraft | A319/M-SDE3FGHIRWY/LB1 |
Departure
| Time | 2026-04-30 13:02 |
|---|---|
| Airport | Josep Tarradellas Barcelona-El Prat Airport (LEBL) |
Arrival
| Time | 2026-04-30 14:47 |
|---|---|
| Airport | London Heathrow Airport (EGLL) |
| Time | Latitude | Longitude | Altitude | Speed | Heading |
|---|---|---|---|---|---|
| 2026-04-30 12:34 | 41.29116 | 2.07847 | 19 ft | 0 kts | 155° |
| 2026-04-30 12:52 | 41.29119 | 2.07845 | 19 ft | 3 kts | 155° |
| 2026-04-30 12:52 | 41.29143 | 2.07831 | 19 ft | 4 kts | 155° |
| 2026-04-30 12:52 | 41.29167 | 2.07815 | 22 ft | 4 kts | 143° |
| 2026-04-30 12:52 | 41.29183 | 2.07790 | 20 ft | 4 kts | 94° |
| 2026-04-30 12:53 | 41.29183 | 2.07776 | 21 ft | 0 kts | 65° |
| 2026-04-30 12:55 | 41.29186 | 2.07786 | 19 ft | 3 kts | 64° |
| 2026-04-30 12:55 | 41.29200 | 2.07827 | 19 ft | 7 kts | 66° |
| 2026-04-30 12:55 | 41.29225 | 2.07902 | 20 ft | 11 kts | 66° |
| 2026-04-30 12:55 | 41.29262 | 2.08013 | 19 ft | 15 kts | 67° |
| 2026-04-30 12:56 | 41.29278 | 2.08060 | 19 ft | 1 kts | 63° |
| 2026-04-30 12:56 | 41.29288 | 2.08086 | 19 ft | 6 kts | 64° |
| 2026-04-30 12:56 | 41.29314 | 2.08160 | 20 ft | 11 kts | 65° |
| 2026-04-30 12:56 | 41.29351 | 2.08268 | 21 ft | 15 kts | 66° |
| 2026-04-30 12:57 | 41.29343 | 2.08395 | 19 ft | 16 kts | 148° |
| 2026-04-30 12:57 | 41.29236 | 2.08451 | 22 ft | 16 kts | 174° |
| 2026-04-30 12:57 | 41.29132 | 2.08416 | 20 ft | 14 kts | 201° |
| 2026-04-30 12:57 | 41.29075 | 2.08389 | 19 ft | 13 kts | 199° |
| 2026-04-30 12:58 | 41.28980 | 2.08345 | 18 ft | 15 kts | 198° |
| 2026-04-30 12:58 | 41.28868 | 2.08293 | 18 ft | 18 kts | 200° |
| 2026-04-30 12:58 | 41.28749 | 2.08240 | 16 ft | 14 kts | 197° |
| 2026-04-30 12:58 | 41.28668 | 2.08168 | 17 ft | 15 kts | 246° |
| 2026-04-30 12:59 | 41.28623 | 2.08034 | 18 ft | 17 kts | 245° |
| 2026-04-30 12:59 | 41.28585 | 2.07924 | 19 ft | 13 kts | 246° |
| 2026-04-30 12:59 | 41.28546 | 2.07809 | 17 ft | 15 kts | 245° |
| 2026-04-30 12:59 | 41.28504 | 2.07686 | 17 ft | 13 kts | 245° |
| 2026-04-30 13:00 | 41.28436 | 2.07615 | 16 ft | 14 kts | 238° |
| 2026-04-30 13:00 | 41.28375 | 2.07537 | 18 ft | 12 kts | 199° |
| 2026-04-30 13:00 | 41.28306 | 2.07481 | 18 ft | 11 kts | 240° |
| 2026-04-30 13:00 | 41.28249 | 2.07439 | 21 ft | 11 kts | 145° |
| 2026-04-30 13:01 | 41.28262 | 2.07528 | 20 ft | 11 kts | 67° |
| 2026-04-30 13:01 | 41.28329 | 2.07728 | 19 ft | 48 kts | 65° |
| 2026-04-30 13:01 | 41.28550 | 2.08367 | 21 ft | 103 kts | 65° |
| 2026-04-30 13:01 | 41.28918 | 2.09448 | 128 ft | 142 kts | 66° |
| 2026-04-30 13:02 | 41.29321 | 2.10662 | 747 ft | 148 kts | 70° |
| 2026-04-30 13:02 | 41.29458 | 2.12101 | 1227 ft | 168 kts | 96° |
| 2026-04-30 13:02 | 41.29208 | 2.13681 | 1809 ft | 180 kts | 104° |
| 2026-04-30 13:02 | 41.28942 | 2.15326 | 2500 ft | 184 kts | 97° |
| 2026-04-30 13:03 | 41.28757 | 2.17057 | 3115 ft | 197 kts | 96° |
| 2026-04-30 13:03 | 41.28596 | 2.18956 | 3735 ft | 214 kts | 95° |
| 2026-04-30 13:03 | 41.28463 | 2.20927 | 4683 ft | 214 kts | 95° |
| 2026-04-30 13:03 | 41.28328 | 2.22904 | 5622 ft | 216 kts | 97° |
| 2026-04-30 13:04 | 41.28146 | 2.24907 | 6491 ft | 221 kts | 99° |
| 2026-04-30 13:04 | 41.27951 | 2.26955 | 7276 ft | 227 kts | 98° |
| 2026-04-30 13:04 | 41.28101 | 2.29153 | 7733 ft | 255 kts | 71° |
| 2026-04-30 13:04 | 41.29176 | 2.31147 | 8178 ft | 283 kts | 37° |
| 2026-04-30 13:05 | 41.31039 | 2.32070 | 8849 ft | 294 kts | 1° |
| 2026-04-30 13:05 | 41.33033 | 2.31567 | 9742 ft | 295 kts | 336° |
| 2026-04-30 13:05 | 41.34891 | 2.30364 | 10461 ft | 305 kts | 327° |
| 2026-04-30 13:06 | 41.38681 | 2.27169 | 11427 ft | 336 kts | 324° |
| 2026-04-30 13:06 | 41.40665 | 2.25474 | 12208 ft | 341 kts | 325° |
| 2026-04-30 13:06 | 41.42724 | 2.23789 | 13027 ft | 345 kts | 326° |
| 2026-04-30 13:06 | 41.44780 | 2.22175 | 13826 ft | 349 kts | 327° |
| 2026-04-30 13:07 | 41.46902 | 2.20554 | 14548 ft | 353 kts | 328° |
| 2026-04-30 13:07 | 41.49080 | 2.18917 | 15289 ft | 356 kts | 328° |
| 2026-04-30 13:07 | 41.51247 | 2.17295 | 16023 ft | 359 kts | 328° |
| 2026-04-30 13:07 | 41.53402 | 2.15678 | 16733 ft | 362 kts | 328° |
| 2026-04-30 13:08 | 41.55601 | 2.14022 | 17452 ft | 365 kts | 328° |
| 2026-04-30 13:08 | 41.57818 | 2.12349 | 18180 ft | 368 kts | 328° |
| 2026-04-30 13:08 | 41.60055 | 2.10658 | 18813 ft | 371 kts | 328° |
| 2026-04-30 13:08 | 41.62283 | 2.08971 | 19436 ft | 374 kts | 328° |
| 2026-04-30 13:09 | 41.64590 | 2.07222 | 20068 ft | 377 kts | 328° |
| 2026-04-30 13:09 | 41.66848 | 2.05505 | 20684 ft | 380 kts | 328° |
| 2026-04-30 13:09 | 41.69184 | 2.03723 | 21301 ft | 383 kts | 327° |
| 2026-04-30 13:09 | 41.71480 | 2.01970 | 21892 ft | 386 kts | 328° |
| 2026-04-30 13:10 | 41.73824 | 2.00181 | 22495 ft | 389 kts | 328° |
| 2026-04-30 13:10 | 41.76185 | 1.98379 | 23111 ft | 392 kts | 328° |
| 2026-04-30 13:10 | 41.78566 | 1.96561 | 23688 ft | 395 kts | 328° |
| 2026-04-30 13:10 | 41.80957 | 1.94732 | 24164 ft | 398 kts | 327° |
| 2026-04-30 13:11 | 41.83374 | 1.92882 | 24651 ft | 400 kts | 327° |
| 2026-04-30 13:11 | 41.85790 | 1.91030 | 25144 ft | 402 kts | 327° |
| 2026-04-30 13:11 | 41.88228 | 1.89160 | 25655 ft | 404 kts | 327° |
| 2026-04-30 13:11 | 41.90680 | 1.87281 | 26153 ft | 406 kts | 326° |
| 2026-04-30 13:12 | 41.93141 | 1.85393 | 26633 ft | 408 kts | 326° |
| 2026-04-30 13:12 | 41.95610 | 1.83496 | 27114 ft | 410 kts | 326° |
| 2026-04-30 13:12 | 41.98092 | 1.81584 | 27577 ft | 412 kts | 326° |
| 2026-04-30 13:13 | 42.03092 | 1.77724 | 28495 ft | 417 kts | 326° |
| 2026-04-30 13:13 | 42.05611 | 1.75777 | 28955 ft | 419 kts | 325° |
| 2026-04-30 13:13 | 42.10685 | 1.71854 | 29811 ft | 423 kts | 325° |
| 2026-04-30 13:14 | 42.13251 | 1.69870 | 30190 ft | 426 kts | 325° |
| 2026-04-30 13:14 | 42.15822 | 1.67880 | 30561 ft | 428 kts | 325° |
| 2026-04-30 13:14 | 42.21002 | 1.63875 | 31233 ft | 431 kts | 325° |
| 2026-04-30 13:15 | 42.23601 | 1.61858 | 31566 ft | 431 kts | 325° |
| 2026-04-30 13:15 | 42.28811 | 1.57805 | 32357 ft | 431 kts | 324° |
| 2026-04-30 13:15 | 42.31401 | 1.55788 | 32873 ft | 429 kts | 324° |
| 2026-04-30 13:16 | 42.33980 | 1.53775 | 33371 ft | 427 kts | 324° |
| 2026-04-30 13:16 | 42.36543 | 1.51773 | 33894 ft | 424 kts | 324° |
| 2026-04-30 13:16 | 42.39094 | 1.49784 | 34082 ft | 422 kts | 324° |
| 2026-04-30 13:17 | 42.44034 | 1.45922 | 34109 ft | 406 kts | 323° |
| 2026-04-30 13:17 | 42.46473 | 1.44009 | 34118 ft | 404 kts | 323° |
| 2026-04-30 13:18 | 42.53643 | 1.38383 | 34118 ft | 404 kts | 323° |
| 2026-04-30 13:18 | 42.60961 | 1.32619 | 34117 ft | 405 kts | 324° |
| 2026-04-30 13:19 | 42.65807 | 1.28800 | 34110 ft | 404 kts | 323° |
| 2026-04-30 13:19 | 42.70725 | 1.25024 | 34105 ft | 408 kts | 329° |
| 2026-04-30 13:20 | 42.76248 | 1.23035 | 34108 ft | 422 kts | 348° |
| 2026-04-30 13:20 | 42.82113 | 1.22251 | 34104 ft | 423 kts | 347° |
| 2026-04-30 13:21 | 42.87938 | 1.21460 | 34096 ft | 423 kts | 348° |
| 2026-04-30 13:22 | 42.96754 | 1.20244 | 34091 ft | 424 kts | 348° |
| 2026-04-30 13:22 | 43.05525 | 1.19026 | 34087 ft | 425 kts | 348° |
| 2026-04-30 13:23 | 43.14358 | 1.17804 | 34089 ft | 426 kts | 348° |
| 2026-04-30 13:24 | 43.26150 | 1.16162 | 34086 ft | 426 kts | 348° |
| 2026-04-30 13:25 | 43.37975 | 1.14517 | 34096 ft | 427 kts | 348° |
| 2026-04-30 13:26 | 43.52743 | 1.12445 | 34099 ft | 428 kts | 348° |
| 2026-04-30 13:28 | 43.66373 | 1.06342 | 34083 ft | 408 kts | 322° |
| 2026-04-30 13:28 | 43.73634 | 1.00196 | 34079 ft | 409 kts | 322° |
| 2026-04-30 13:29 | 43.83341 | 0.91944 | 34094 ft | 410 kts | 323° |
| 2026-04-30 13:31 | 43.96049 | 0.82626 | 34091 ft | 417 kts | 330° |
| 2026-04-30 13:32 | 44.09242 | 0.74101 | 34090 ft | 420 kts | 330° |
| 2026-04-30 13:33 | 44.19843 | 0.67227 | 34084 ft | 423 kts | 330° |
| 2026-04-30 13:34 | 44.27870 | 0.62007 | 34089 ft | 425 kts | 330° |
| 2026-04-30 13:35 | 44.38619 | 0.54975 | 34091 ft | 427 kts | 331° |
| 2026-04-30 13:36 | 44.49081 | 0.48083 | 34097 ft | 430 kts | 331° |
| 2026-04-30 13:36 | 44.57209 | 0.42682 | 34103 ft | 432 kts | 332° |
| 2026-04-30 13:37 | 44.65350 | 0.37257 | 34106 ft | 434 kts | 332° |
| 2026-04-30 13:38 | 44.73554 | 0.31789 | 34109 ft | 436 kts | 332° |
| 2026-04-30 13:39 | 44.84515 | 0.24433 | 34109 ft | 437 kts | 332° |
| 2026-04-30 13:40 | 44.92750 | 0.18889 | 34102 ft | 438 kts | 333° |
| 2026-04-30 13:40 | 44.98254 | 0.15187 | 34101 ft | 438 kts | 333° |
| 2026-04-30 13:41 | 45.03765 | 0.11463 | 34093 ft | 439 kts | 333° |
| 2026-04-30 13:41 | 45.09274 | 0.07719 | 34096 ft | 439 kts | 333° |
| 2026-04-30 13:42 | 45.14791 | 0.03979 | 34094 ft | 440 kts | 333° |
| 2026-04-30 13:42 | 45.23021 | -0.01631 | 34094 ft | 440 kts | 333° |
| 2026-04-30 13:43 | 45.28541 | -0.05406 | 34088 ft | 440 kts | 333° |
| 2026-04-30 13:43 | 45.34063 | -0.09173 | 34090 ft | 440 kts | 333° |
| 2026-04-30 13:44 | 45.39585 | -0.12955 | 34094 ft | 440 kts | 333° |
| 2026-04-30 13:44 | 45.45105 | -0.16752 | 34094 ft | 441 kts | 333° |
| 2026-04-30 13:45 | 45.53386 | -0.22475 | 34086 ft | 441 kts | 334° |
| 2026-04-30 13:46 | 45.58915 | -0.26285 | 34085 ft | 442 kts | 334° |
| 2026-04-30 13:46 | 45.64449 | -0.30122 | 34080 ft | 442 kts | 333° |
| 2026-04-30 13:47 | 45.69466 | -0.35093 | 34085 ft | 443 kts | 321° |
| 2026-04-30 13:47 | 45.74311 | -0.40552 | 34076 ft | 443 kts | 321° |
| 2026-04-30 13:48 | 45.79162 | -0.46039 | 34084 ft | 444 kts | 321° |
| 2026-04-30 13:48 | 45.84009 | -0.51521 | 34077 ft | 444 kts | 321° |
| 2026-04-30 13:49 | 45.88037 | -0.56088 | 34077 ft | 445 kts | 321° |
| 2026-04-30 13:49 | 45.92893 | -0.61605 | 34082 ft | 445 kts | 321° |
| 2026-04-30 13:50 | 45.97744 | -0.67142 | 34077 ft | 446 kts | 321° |
| 2026-04-30 13:50 | 46.05046 | -0.75475 | 34078 ft | 447 kts | 321° |
| 2026-04-30 13:51 | 46.09919 | -0.81050 | 34072 ft | 447 kts | 321° |
| 2026-04-30 13:51 | 46.14778 | -0.86636 | 34080 ft | 447 kts | 321° |
| 2026-04-30 13:52 | 46.19744 | -0.92042 | 34080 ft | 447 kts | 329° |
| 2026-04-30 13:52 | 46.25421 | -0.95426 | 34083 ft | 445 kts | 348° |
| 2026-04-30 13:53 | 46.31473 | -0.97283 | 34078 ft | 445 kts | 349° |
| 2026-04-30 13:53 | 46.37535 | -0.99148 | 34074 ft | 445 kts | 349° |
| 2026-04-30 13:54 | 46.43597 | -1.01018 | 34071 ft | 445 kts | 349° |
| 2026-04-30 13:54 | 46.49663 | -1.02886 | 34067 ft | 446 kts | 349° |
| 2026-04-30 13:55 | 46.55730 | -1.04754 | 34075 ft | 446 kts | 349° |
| 2026-04-30 13:55 | 46.61794 | -1.06624 | 34079 ft | 446 kts | 349° |
| 2026-04-30 13:56 | 46.67862 | -1.08511 | 34078 ft | 446 kts | 349° |
| 2026-04-30 13:56 | 46.73940 | -1.10418 | 34081 ft | 447 kts | 349° |
| 2026-04-30 13:57 | 46.80029 | -1.12318 | 34078 ft | 447 kts | 349° |
| 2026-04-30 13:57 | 46.86105 | -1.14212 | 34077 ft | 447 kts | 349° |
| 2026-04-30 13:58 | 46.95236 | -1.17063 | 34069 ft | 447 kts | 349° |
| 2026-04-30 13:59 | 47.01277 | -1.18960 | 34060 ft | 447 kts | 349° |
| 2026-04-30 13:59 | 47.07360 | -1.20880 | 34062 ft | 447 kts | 349° |
| 2026-04-30 14:00 | 47.13438 | -1.22799 | 34063 ft | 447 kts | 348° |
| 2026-04-30 14:00 | 47.22551 | -1.25684 | 34052 ft | 446 kts | 348° |
| 2026-04-30 14:01 | 47.28618 | -1.27611 | 34056 ft | 446 kts | 348° |
| 2026-04-30 14:01 | 47.34686 | -1.29543 | 34057 ft | 446 kts | 348° |
| 2026-04-30 14:02 | 47.40744 | -1.31470 | 34051 ft | 445 kts | 348° |
| 2026-04-30 14:02 | 47.46759 | -1.33394 | 34055 ft | 445 kts | 348° |
| 2026-04-30 14:03 | 47.52804 | -1.35339 | 34054 ft | 445 kts | 348° |
| 2026-04-30 14:03 | 47.58855 | -1.37280 | 34053 ft | 445 kts | 348° |
| 2026-04-30 14:04 | 47.64902 | -1.39220 | 34049 ft | 445 kts | 348° |
| 2026-04-30 14:04 | 47.70962 | -1.41075 | 34047 ft | 444 kts | 353° |
| 2026-04-30 14:05 | 47.77116 | -1.41652 | 34051 ft | 443 kts | 358° |
| 2026-04-30 14:05 | 47.83271 | -1.42114 | 34054 ft | 443 kts | 358° |
| 2026-04-30 14:06 | 47.92509 | -1.42812 | 34059 ft | 443 kts | 358° |
| 2026-04-30 14:07 | 48.01746 | -1.43512 | 34063 ft | 443 kts | 359° |
| 2026-04-30 14:08 | 48.10982 | -1.44187 | 34066 ft | 443 kts | 359° |
| 2026-04-30 14:08 | 48.20228 | -1.44843 | 34052 ft | 443 kts | 359° |
| 2026-04-30 14:09 | 48.26391 | -1.45287 | 34056 ft | 443 kts | 359° |
| 2026-04-30 14:10 | 48.35600 | -1.45945 | 34058 ft | 444 kts | 359° |
| 2026-04-30 14:10 | 48.41813 | -1.46394 | 34058 ft | 444 kts | 359° |
| 2026-04-30 14:11 | 48.47942 | -1.46828 | 34064 ft | 444 kts | 359° |
| 2026-04-30 14:11 | 48.54115 | -1.47279 | 34062 ft | 444 kts | 359° |
| 2026-04-30 14:12 | 48.60287 | -1.47746 | 34059 ft | 444 kts | 359° |
| 2026-04-30 14:12 | 48.66461 | -1.48196 | 34062 ft | 444 kts | 359° |
| 2026-04-30 14:13 | 48.72633 | -1.48642 | 34069 ft | 444 kts | 359° |
| 2026-04-30 14:13 | 48.78805 | -1.49099 | 34062 ft | 444 kts | 359° |
| 2026-04-30 14:14 | 48.84968 | -1.49554 | 34067 ft | 443 kts | 359° |
| 2026-04-30 14:14 | 48.91111 | -1.50290 | 34060 ft | 444 kts | 349° |
| 2026-04-30 14:15 | 48.97160 | -1.52243 | 34066 ft | 444 kts | 349° |
| 2026-04-30 14:15 | 49.03170 | -1.54157 | 34069 ft | 444 kts | 349° |
| 2026-04-30 14:16 | 49.09217 | -1.56087 | 34066 ft | 444 kts | 348° |
| 2026-04-30 14:16 | 49.15258 | -1.58041 | 34062 ft | 444 kts | 348° |
| 2026-04-30 14:17 | 49.21295 | -1.59997 | 34067 ft | 443 kts | 348° |
| 2026-04-30 14:17 | 49.27334 | -1.61951 | 34063 ft | 443 kts | 348° |
| 2026-04-30 14:18 | 49.33372 | -1.63914 | 34064 ft | 443 kts | 348° |
| 2026-04-30 14:18 | 49.42420 | -1.66877 | 34083 ft | 443 kts | 348° |
| 2026-04-30 14:19 | 49.51469 | -1.69841 | 34090 ft | 443 kts | 348° |
| 2026-04-30 14:20 | 49.57506 | -1.71815 | 34085 ft | 443 kts | 349° |
| 2026-04-30 14:20 | 49.66665 | -1.71963 | 34094 ft | 442 kts | 4° |
| 2026-04-30 14:21 | 49.72807 | -1.71453 | 34096 ft | 442 kts | 4° |
| 2026-04-30 14:22 | 49.82020 | -1.70681 | 34097 ft | 442 kts | 4° |
| 2026-04-30 14:22 | 49.88167 | -1.70149 | 33831 ft | 443 kts | 4° |
| 2026-04-30 14:22 | 49.91244 | -1.69888 | 33556 ft | 444 kts | 4° |
| 2026-04-30 14:23 | 49.97421 | -1.69373 | 33017 ft | 445 kts | 4° |
| 2026-04-30 14:23 | 50.03409 | -1.67534 | 32113 ft | 436 kts | 19° |
| 2026-04-30 14:24 | 50.09164 | -1.64717 | 31095 ft | 431 kts | 19° |
| 2026-04-30 14:24 | 50.12015 | -1.63329 | 30588 ft | 428 kts | 19° |
| 2026-04-30 14:25 | 50.17672 | -1.60587 | 29538 ft | 422 kts | 19° |
| 2026-04-30 14:25 | 50.23231 | -1.57897 | 28549 ft | 414 kts | 20° |
| 2026-04-30 14:26 | 50.28659 | -1.55250 | 27624 ft | 409 kts | 20° |
| 2026-04-30 14:26 | 50.31364 | -1.53929 | 27164 ft | 406 kts | 20° |
| 2026-04-30 14:26 | 50.36726 | -1.51297 | 26267 ft | 402 kts | 21° |
| 2026-04-30 14:27 | 50.39391 | -1.49990 | 25842 ft | 400 kts | 21° |
| 2026-04-30 14:27 | 50.42034 | -1.48694 | 25418 ft | 397 kts | 21° |
| 2026-04-30 14:27 | 50.44662 | -1.47399 | 24991 ft | 394 kts | 22° |
| 2026-04-30 14:28 | 50.49871 | -1.44836 | 24149 ft | 390 kts | 22° |
| 2026-04-30 14:28 | 50.52452 | -1.43566 | 23698 ft | 388 kts | 23° |
| 2026-04-30 14:28 | 50.54907 | -1.41950 | 23215 ft | 378 kts | 34° |
| 2026-04-30 14:28 | 50.57196 | -1.39973 | 22779 ft | 373 kts | 34° |
| 2026-04-30 14:29 | 50.61713 | -1.36085 | 21886 ft | 367 kts | 34° |
| 2026-04-30 14:29 | 50.65427 | -1.32906 | 21124 ft | 364 kts | 34° |
| 2026-04-30 14:30 | 50.72797 | -1.26558 | 19576 ft | 360 kts | 33° |
| 2026-04-30 14:31 | 50.77159 | -1.22738 | 18639 ft | 357 kts | 35° |
| 2026-04-30 14:31 | 50.81325 | -1.18551 | 17637 ft | 352 kts | 38° |
| 2026-04-30 14:31 | 50.83351 | -1.16401 | 17184 ft | 349 kts | 38° |
| 2026-04-30 14:32 | 50.87353 | -1.12152 | 16253 ft | 345 kts | 38° |
| 2026-04-30 14:32 | 50.89361 | -1.10048 | 15785 ft | 344 kts | 38° |
| 2026-04-30 14:32 | 50.91356 | -1.07972 | 15324 ft | 342 kts | 38° |
| 2026-04-30 14:33 | 50.93343 | -1.05914 | 14857 ft | 341 kts | 37° |
| 2026-04-30 14:33 | 50.97309 | -1.01849 | 13976 ft | 338 kts | 33° |
| 2026-04-30 14:33 | 50.99449 | -1.00316 | 13551 ft | 336 kts | 27° |
| 2026-04-30 14:34 | 51.01599 | -0.98867 | 13098 ft | 334 kts | 27° |
| 2026-04-30 14:34 | 51.03730 | -0.97429 | 12647 ft | 332 kts | 26° |
| 2026-04-30 14:34 | 51.05852 | -0.95994 | 12205 ft | 330 kts | 27° |
| 2026-04-30 14:34 | 51.07964 | -0.94567 | 11764 ft | 329 kts | 27° |
| 2026-04-30 14:35 | 51.11450 | -0.92214 | 11027 ft | 327 kts | 26° |
| 2026-04-30 14:35 | 51.14243 | -0.90326 | 10442 ft | 325 kts | 26° |
| 2026-04-30 14:35 | 51.16307 | -0.88929 | 10252 ft | 317 kts | 26° |
| 2026-04-30 14:36 | 51.18308 | -0.87575 | 10053 ft | 309 kts | 26° |
| 2026-04-30 14:36 | 51.20250 | -0.86258 | 9734 ft | 306 kts | 26° |
| 2026-04-30 14:36 | 51.22210 | -0.84925 | 9312 ft | 307 kts | 26° |
| 2026-04-30 14:36 | 51.24164 | -0.83597 | 9008 ft | 303 kts | 26° |
| 2026-04-30 14:37 | 51.26116 | -0.82267 | 8500 ft | 306 kts | 27° |
| 2026-04-30 14:37 | 51.28067 | -0.80932 | 8061 ft | 306 kts | 26° |
| 2026-04-30 14:37 | 51.30027 | -0.79591 | 7636 ft | 306 kts | 26° |
| 2026-04-30 14:37 | 51.31970 | -0.78262 | 7211 ft | 299 kts | 26° |
| 2026-04-30 14:38 | 51.33859 | -0.76975 | 6804 ft | 291 kts | 26° |
| 2026-04-30 14:38 | 51.35702 | -0.75719 | 6388 ft | 284 kts | 26° |
| 2026-04-30 14:38 | 51.37535 | -0.74848 | 6217 ft | 271 kts | 4° |
| 2026-04-30 14:38 | 51.39345 | -0.75478 | 6099 ft | 267 kts | 337° |
| 2026-04-30 14:39 | 51.40997 | -0.76742 | 5961 ft | 258 kts | 335° |
| 2026-04-30 14:39 | 51.42592 | -0.77882 | 5829 ft | 244 kts | 337° |
| 2026-04-30 14:39 | 51.44142 | -0.78907 | 5593 ft | 241 kts | 339° |
| 2026-04-30 14:40 | 51.46833 | -0.79734 | 5024 ft | 240 kts | 21° |
| 2026-04-30 14:40 | 51.48147 | -0.78275 | 4568 ft | 229 kts | 62° |
| 2026-04-30 14:40 | 51.48555 | -0.75894 | 4100 ft | 223 kts | 94° |
| 2026-04-30 14:40 | 51.48422 | -0.73421 | 3586 ft | 221 kts | 101° |
| 2026-04-30 14:41 | 51.48203 | -0.70986 | 3170 ft | 220 kts | 100° |
| 2026-04-30 14:41 | 51.47678 | -0.68750 | 3031 ft | 213 kts | 128° |
| 2026-04-30 14:41 | 51.46487 | -0.67484 | 2993 ft | 205 kts | 162° |
| 2026-04-30 14:41 | 51.45095 | -0.67571 | 3017 ft | 202 kts | 190° |
| 2026-04-30 14:42 | 51.43911 | -0.68782 | 2981 ft | 209 kts | 226° |
| 2026-04-30 14:42 | 51.43411 | -0.70993 | 3014 ft | 219 kts | 268° |
| 2026-04-30 14:42 | 51.43894 | -0.73279 | 2973 ft | 222 kts | 312° |
| 2026-04-30 14:42 | 51.45147 | -0.74537 | 2889 ft | 212 kts | 354° |
| 2026-04-30 14:43 | 51.46538 | -0.74337 | 2819 ft | 199 kts | 30° |
| 2026-04-30 14:43 | 51.47542 | -0.72986 | 2725 ft | 180 kts | 63° |
| 2026-04-30 14:43 | 51.47898 | -0.71155 | 2605 ft | 167 kts | 93° |
| 2026-04-30 14:43 | 51.47774 | -0.69321 | 2544 ft | 165 kts | 98° |
| 2026-04-30 14:44 | 51.47703 | -0.67488 | 2403 ft | 164 kts | 95° |
| 2026-04-30 14:44 | 51.47683 | -0.65686 | 2235 ft | 162 kts | 93° |
| 2026-04-30 14:44 | 51.47680 | -0.63851 | 1995 ft | 165 kts | 93° |
| 2026-04-30 14:44 | 51.47687 | -0.62034 | 1763 ft | 157 kts | 93° |
| 2026-04-30 14:45 | 51.47695 | -0.60369 | 1561 ft | 143 kts | 92° |
| 2026-04-30 14:45 | 51.47702 | -0.58800 | 1380 ft | 139 kts | 90° |
| 2026-04-30 14:45 | 51.47709 | -0.57289 | 1205 ft | 132 kts | 90° |
| 2026-04-30 14:45 | 51.47716 | -0.55849 | 1030 ft | 128 kts | 91° |
| 2026-04-30 14:46 | 51.47722 | -0.54423 | 847 ft | 127 kts | 90° |
| 2026-04-30 14:46 | 51.47728 | -0.52995 | 688 ft | 127 kts | 93° |
| 2026-04-30 14:46 | 51.47731 | -0.51586 | 506 ft | 130 kts | 94° |
| 2026-04-30 14:46 | 51.47741 | -0.50199 | 303 ft | 127 kts | 90° |
| 2026-04-30 14:47 | 51.47751 | -0.48812 | 146 ft | 124 kts | 91° |
| 2026-04-30 14:47 | 51.47751 | -0.47470 | 83 ft | 109 kts | 90° |
| 2026-04-30 14:47 | 51.47752 | -0.46526 | 92 ft | 59 kts | 88° |
| 2026-04-30 14:47 | 51.47731 | -0.46177 | 88 ft | 25 kts | 140° |
| 2026-04-30 14:48 | 51.47632 | -0.46072 | 85 ft | 10 kts | 149° |
| 2026-04-30 14:48 | 51.47578 | -0.46072 | 86 ft | 11 kts | 206° |
| 2026-04-30 14:48 | 51.47520 | -0.46131 | 85 ft | 13 kts | 244° |
| 2026-04-30 14:48 | 51.47517 | -0.46290 | 85 ft | 16 kts | 269° |
| 2026-04-30 14:49 | 51.47517 | -0.46471 | 85 ft | 18 kts | 268° |
| 2026-04-30 14:49 | 51.47514 | -0.46682 | 85 ft | 20 kts | 264° |
| 2026-04-30 14:49 | 51.47496 | -0.46901 | 85 ft | 20 kts | 270° |
| 2026-04-30 14:49 | 51.47493 | -0.47134 | 85 ft | 21 kts | 269° |
| 2026-04-30 14:50 | 51.47491 | -0.47585 | 85 ft | 16 kts | 269° |
| 2026-04-30 14:50 | 51.47491 | -0.47778 | 85 ft | 18 kts | 269° |
| 2026-04-30 14:51 | 51.47490 | -0.48217 | 85 ft | 17 kts | 270° |
| 2026-04-30 14:51 | 51.47487 | -0.48416 | 87 ft | 18 kts | 262° |
| 2026-04-30 14:51 | 51.47282 | -0.48475 | 85 ft | 7 kts | 186° |
| 2026-04-30 14:52 | 51.47270 | -0.48545 | 85 ft | 8 kts | 273° |
| 2026-04-30 14:52 | 51.47271 | -0.48592 | 85 ft | 0 kts | 270° |